LEVC/VLC METAR and TAF weather

Enter ICAO airport designator
Station Type Date Time Source
LEVC METAR 2020/07/10 19:00 UTC NOAA

LEVC 101900Z 09007KT CAVOK 28/22 Q1014 NOSIG


Station Type Date Time Source
LEVC Decoded METAR 2020/07/10 19:00 UTC NOAA

Valencia / Aeropuerto, Spain (LEVC) 39-30N 000-28W 62M
Jul 10, 2020 - 03:00 PM EDT / 2020.07.10 1900 UTC
Wind: from the E (090 degrees) at 8 MPH (7 KT):0
Visibility: greater than 7 mile(s):0
Temperature: 82 F (28 C)
Dew Point: 71 F (22 C)
Relative Humidity: 69%
Pressure (altimeter): 29.94 in. Hg (1014 hPa)
ob: LEVC 101900Z 09007KT CAVOK 28/22 Q1014 NOSIG
cycle: 19

Station Type Date Time Source
LEVC TAF 2020/07/10 18:27 UTC NOAA

TAF LEVC 101700Z 1018/1118 VRB04KT 9999 FEW040 TX31/1112Z TN23/1106Z
TEMPO 1018/1020 07008KT
BECMG 1107/1109 08010KT

Example: see airport list